Time;durP1;ratioP1;P1;durP2;ratioP2;P2;SDS_P1;SDS_P2;PMS_P1;PMS_P2;Temp;Humidity;BMP_temperature;BMP_pressure;BME280_temperature;BME280_humidity;BME280_pressure;Samples;Min_cycle;Max_cycle;Signal;HPM_P1;HPM_P2
2021/05/09 00:00:51;;;;;;;2.55;0.80;;;12.60;99.90;;;;;;5076282;28;20056;-73
2021/05/09 00:03:16;;;;;;;1.95;0.70;;;13.80;99.90;;;;;;5057801;28;20516;-74
2021/05/09 00:05:42;;;;;;;2.50;0.60;;;13.80;99.90;;;;;;5076221;28;20027;-74
2021/05/09 00:08:07;;;;;;;3.72;0.73;;;13.80;99.90;;;;;;5076265;28;20028;-73
2021/05/09 00:10:33;;;;;;;2.08;0.80;;;13.80;99.90;;;;;;5076236;28;20036;-74
2021/05/09 00:12:58;;;;;;;0.68;0.57;;;13.90;99.90;;;;;;5057902;28;20528;-73
2021/05/09 00:15:26;;;;;;;3.88;0.60;;;13.90;99.90;;;;;;5076247;28;20095;-74
2021/05/09 00:17:51;;;;;;;3.78;1.17;;;13.90;99.90;;;;;;5057969;28;20029;-73
2021/05/09 00:20:18;;;;;;;2.50;0.98;;;13.90;99.90;;;;;;5075453;28;20059;-75
2021/05/09 00:22:44;;;;;;;2.47;0.65;;;13.80;99.90;;;;;;5075746;28;20021;-73
2021/05/09 00:25:10;;;;;;;3.20;0.20;;;13.80;99.90;;;;;;5057674;28;20381;-74
2021/05/09 00:27:36;;;;;;;3.10;0.40;;;13.80;99.90;;;;;;5075663;28;20028;-73
2021/05/09 00:30:03;;;;;;;4.13;0.50;;;13.80;99.90;;;;;;5075563;28;20051;-75
2021/05/09 00:32:29;;;;;;;1.45;0.75;;;13.70;99.90;;;;;;5076085;28;20491;-74
2021/05/09 00:34:54;;;;;;;2.20;0.50;;;13.60;99.90;;;;;;5057563;28;20029;-73
2021/05/09 00:37:20;;;;;;;3.90;0.40;;;13.60;99.90;;;;;;5075516;28;20025;-74
2021/05/09 00:39:46;;;;;;;2.53;0.68;;;13.60;99.90;;;;;;5075779;28;20078;-75
2021/05/09 00:42:11;;;;;;;2.00;0.40;;;13.60;99.90;;;;;;5075842;28;20044;-74
2021/05/09 00:44:37;;;;;;;2.65;0.85;;;13.60;99.90;;;;;;5075178;28;20024;-74
2021/05/09 00:47:08;;;;;;;3.90;0.82;;;13.50;99.90;;;;;;5075397;28;20024;-72
2021/05/09 00:49:35;;;;;;;1.67;0.63;;;13.50;99.90;;;;;;5074942;28;20021;-74
2021/05/09 00:52:01;;;;;;;2.85;0.68;;;13.40;99.90;;;;;;5075122;28;20055;-74
2021/05/09 00:54:28;;;;;;;3.03;0.93;;;13.40;99.90;;;;;;5075328;28;20032;-75
2021/05/09 00:56:56;;;;;;;3.42;0.70;;;13.20;99.90;;;;;;5075073;28;20031;-74
2021/05/09 00:59:24;;;;;;;1.65;0.70;;;13.30;99.90;;;;;;5075021;28;20063;-74
2021/05/09 01:01:51;;;;;;;5.18;0.50;;;13.20;99.90;;;;;;5074560;28;20035;-75
2021/05/09 01:04:16;;;;;;;3.15;0.75;;;13.20;99.90;;;;;;5056901;28;20040;-74
2021/05/09 01:06:44;;;;;;;3.47;0.82;;;13.20;99.90;;;;;;5075016;28;20013;-73
2021/05/09 01:09:10;;;;;;;3.00;0.73;;;13.20;99.90;;;;;;5056393;28;20024;-75
2021/05/09 01:11:36;;;;;;;1.45;0.47;;;13.10;99.90;;;;;;5056548;28;20039;-74
2021/05/09 01:14:03;;;;;;;2.40;1.00;;;13.20;99.90;;;;;;5074844;28;20481;-74
2021/05/09 01:16:28;;;;;;;3.92;0.63;;;13.10;99.90;;;;;;5074581;28;20043;-72
2021/05/09 01:18:54;;;;;;;2.70;1.48;;;13.10;99.90;;;;;;5074298;28;20029;-73
2021/05/09 01:21:20;;;;;;;4.65;0.80;;;13.10;99.90;;;;;;5074819;28;20028;-74
2021/05/09 01:23:45;;;;;;;1.92;0.38;;;13.00;99.90;;;;;;5075154;28;20028;-73
2021/05/09 01:26:11;;;;;;;5.97;0.93;;;13.00;99.90;;;;;;5074598;28;20035;-73
2021/05/09 01:28:37;;;;;;;2.83;0.85;;;13.10;99.90;;;;;;5056323;28;20060;-72
2021/05/09 01:31:02;;;;;;;1.50;0.70;;;13.10;99.90;;;;;;5056344;28;20025;-74
2021/05/09 01:33:28;;;;;;;2.40;0.60;;;13.00;99.90;;;;;;5101669;23;20515;-74
2021/05/09 01:35:54;;;;;;;3.15;0.57;;;13.00;99.90;;;;;;5094492;28;20028;-74
2021/05/09 01:38:19;;;;;;;2.40;0.45;;;13.00;99.90;;;;;;5094088;28;20024;-72
2021/05/09 01:40:45;;;;;;;4.72;1.25;;;13.00;99.90;;;;;;5076468;28;20036;-74
2021/05/09 01:43:10;;;;;;;1.48;0.60;;;13.10;99.90;;;;;;5094440;28;20056;-72
2021/05/09 01:45:36;;;;;;;2.97;0.68;;;13.00;99.90;;;;;;5093732;28;20024;-73
2021/05/09 01:48:01;;;;;;;3.55;1.20;;;12.90;99.90;;;;;;5094611;28;20020;-73
2021/05/09 01:50:27;;;;;;;1.90;0.63;;;12.90;99.90;;;;;;5076763;28;20024;-73
2021/05/09 01:52:52;;;;;;;2.65;0.70;;;12.90;99.90;;;;;;5094457;28;20020;-73
2021/05/09 01:55:21;;;;;;;4.00;0.93;;;12.90;99.90;;;;;;5075951;28;20032;-73
2021/05/09 01:57:47;;;;;;;3.50;0.70;;;12.80;99.90;;;;;;5076020;28;20028;-72
2021/05/09 02:00:16;;;;;;;2.25;0.60;;;12.80;99.90;;;;;;5094493;28;20028;-72
2021/05/09 02:02:42;;;;;;;;;;;12.70;99.90;;;;;;5094753;28;20503;-73
2021/05/09 02:05:09;;;;;;;3.05;0.63;;;12.70;99.90;;;;;;5075982;28;19908;-74
2021/05/09 02:07:35;;;;;;;5.03;0.82;;;12.70;99.90;;;;;;5094154;28;20098;-74
2021/05/09 02:10:01;;;;;;;3.47;0.93;;;12.70;99.90;;;;;;5093762;28;20429;-74
2021/05/09 02:12:27;;;;;;;1.75;0.55;;;12.70;99.90;;;;;;5094374;28;20020;-73
2021/05/09 02:14:53;;;;;;;2.97;0.55;;;12.70;99.90;;;;;;5094098;28;20023;-73
2021/05/09 02:17:20;;;;;;;3.88;0.75;;;12.60;99.90;;;;;;5075801;28;20028;-71
2021/05/09 02:19:46;;;;;;;4.28;0.85;;;12.60;99.90;;;;;;5075520;28;20055;-72
2021/05/09 02:22:12;;;;;;;2.90;0.80;;;12.60;99.90;;;;;;5075839;28;20040;-72
2021/05/09 02:24:38;;;;;;;2.85;0.77;;;12.50;99.90;;;;;;5075641;28;20054;-72
2021/05/09 02:27:03;;;;;;;2.53;0.77;;;12.50;99.90;;;;;;5093931;28;20020;-73
2021/05/09 02:34:33;;;;;;;1.27;0.60;;;12.40;99.90;;;;;;5072434;28;20049;-72
2021/05/09 02:37:00;;;;;;;3.35;0.60;;;12.40;99.90;;;;;;5073901;28;20392;-74
2021/05/09 02:39:25;;;;;;;4.35;0.93;;;12.50;99.90;;;;;;5073314;28;20099;-74
2021/05/09 02:41:51;;;;;;;5.57;0.98;;;12.40;99.90;;;;;;5073293;28;20490;-74
2021/05/09 02:44:16;;;;;;;2.53;0.80;;;12.40;99.90;;;;;;5055236;28;20055;-74
2021/05/09 02:46:42;;;;;;;5.70;0.82;;;12.40;99.90;;;;;;5073389;28;20021;-74
2021/05/09 02:49:07;;;;;;;2.88;0.60;;;12.30;99.90;;;;;;5073715;28;20052;-74
2021/05/09 02:51:33;;;;;;;7.32;0.57;;;12.30;99.90;;;;;;5073214;28;20074;-74
2021/05/09 02:53:59;;;;;;;1.92;0.80;;;12.20;99.90;;;;;;5073554;28;20060;-73
2021/05/09 02:56:25;;;;;;;1.67;0.55;;;12.20;99.90;;;;;;5073322;28;20112;-74
2021/05/09 02:58:50;;;;;;;4.75;0.80;;;12.20;99.90;;;;;;5075443;28;20501;-74
2021/05/09 03:01:16;;;;;;;1.60;0.80;;;12.20;99.90;;;;;;5079723;28;20493;-75
2021/05/09 03:03:41;;;;;;;2.65;0.77;;;12.20;99.90;;;;;;5058936;28;20491;-75
2021/05/09 03:06:07;;;;;;;6.32;1.45;;;12.10;99.90;;;;;;5076636;28;20032;-74
2021/05/09 03:08:34;;;;;;;5.35;1.20;;;12.10;99.90;;;;;;5058927;28;20023;-73
2021/05/09 03:11:00;;;;;;;2.80;0.80;;;12.10;99.90;;;;;;5076973;28;20461;-73
2021/05/09 03:13:25;;;;;;;7.07;1.40;;;12.10;99.90;;;;;;5058618;28;20024;-75
2021/05/09 03:15:51;;;;;;;3.15;0.70;;;12.00;99.90;;;;;;5058263;28;20027;-74
2021/05/09 03:18:17;;;;;;;4.85;1.70;;;12.00;99.90;;;;;;5076278;28;20040;-73
2021/05/09 03:20:42;;;;;;;2.42;0.90;;;12.00;99.90;;;;;;5076946;28;20079;-74
2021/05/09 03:23:08;;;;;;;2.33;0.70;;;12.00;99.90;;;;;;5071618;22;20073;-73
2021/05/09 03:25:33;;;;;;;2.55;1.30;;;11.90;99.90;;;;;;5058755;28;20541;-72
2021/05/09 03:27:59;;;;;;;6.18;1.02;;;11.80;99.90;;;;;;5058619;28;20027;-72
2021/05/09 03:30:25;;;;;;;4.13;0.63;;;11.80;99.90;;;;;;5075290;28;20050;-72
2021/05/09 03:32:50;;;;;;;3.03;0.68;;;11.80;99.90;;;;;;5058468;28;20024;-72
2021/05/09 03:35:16;;;;;;;3.58;1.05;;;11.80;99.90;;;;;;5077165;28;20020;-75
2021/05/09 03:37:42;;;;;;;3.45;0.70;;;11.80;99.90;;;;;;5075373;28;20035;-75
2021/05/09 03:40:09;;;;;;;2.25;0.70;;;11.70;99.90;;;;;;5076558;28;20037;-75
2021/05/09 03:42:35;;;;;;;2.60;0.80;;;11.70;99.90;;;;;;5077112;28;20070;-75
2021/05/09 03:45:01;;;;;;;2.13;0.60;;;11.80;99.90;;;;;;5077035;28;20492;-74
2021/05/09 03:47:26;;;;;;;1.88;0.85;;;11.70;99.90;;;;;;5076953;28;20035;-74
2021/05/09 03:49:53;;;;;;;3.53;1.02;;;11.70;99.90;;;;;;5076619;28;20032;-75
2021/05/09 03:52:19;;;;;;;1.25;0.55;;;11.60;99.90;;;;;;5076110;28;20024;-74
2021/05/09 03:54:44;;;;;;;4.88;0.80;;;11.60;99.90;;;;;;5076323;28;20454;-74
2021/05/09 03:57:10;;;;;;;4.22;1.17;;;11.60;99.90;;;;;;5089167;22;20048;-76
2021/05/09 03:59:35;;;;;;;2.78;0.80;;;11.60;99.90;;;;;;5096771;28;20023;-75
2021/05/09 04:02:01;;;;;;;2.53;0.80;;;11.60;99.90;;;;;;5096473;28;20020;-75
2021/05/09 04:04:26;;;;;;;3.63;1.40;;;11.60;99.90;;;;;;5095428;28;20397;-75
2021/05/09 04:06:52;;;;;;;4.70;0.90;;;11.50;99.90;;;;;;5096340;28;20019;-74
2021/05/09 04:09:17;;;;;;;0.95;0.82;;;11.50;99.90;;;;;;5087150;28;20426;-75
2021/05/09 04:11:43;;;;;;;2.65;0.57;;;11.50;99.90;;;;;;5076005;28;20542;-75
2021/05/09 04:14:08;;;;;;;1.95;0.90;;;11.50;99.90;;;;;;5074975;28;20024;-77
2021/05/09 04:16:34;;;;;;;3.90;1.30;;;11.50;99.90;;;;;;5074690;28;20029;-74
2021/05/09 04:18:59;;;;;;;3.05;0.77;;;11.50;99.90;;;;;;5074241;28;20074;-74
2021/05/09 04:21:25;;;;;;;4.18;1.25;;;11.60;99.90;;;;;;5081888;28;20533;-74
2021/05/09 04:23:50;;;;;;;2.95;0.77;;;11.60;99.90;;;;;;5083339;28;20523;-74
2021/05/09 04:26:16;;;;;;;2.88;0.70;;;11.70;99.90;;;;;;5075634;28;20433;-73
2021/05/09 04:28:42;;;;;;;5.97;1.40;;;11.70;99.90;;;;;;5075334;28;20500;-73
2021/05/09 04:31:07;;;;;;;3.70;0.80;;;11.70;99.90;;;;;;5075244;28;20020;-73
2021/05/09 04:33:33;;;;;;;5.65;1.40;;;11.80;99.90;;;;;;5073917;28;20025;-73
2021/05/09 04:35:58;;;;;;;4.32;0.70;;;11.80;99.90;;;;;;5073801;28;20050;-73
2021/05/09 04:38:24;;;;;;;1.52;0.90;;;11.90;99.90;;;;;;5075196;28;20388;-73
2021/05/09 04:40:50;;;;;;;1.52;0.60;;;12.00;99.90;;;;;;5074986;28;20020;-73
2021/05/09 04:43:18;;;;;;;3.25;0.80;;;12.00;99.90;;;;;;5073755;28;20024;-73
2021/05/09 04:45:47;;;;;;;5.85;1.10;;;12.00;99.90;;;;;;5074969;28;20020;-73
2021/05/09 04:48:13;;;;;;;7.90;1.30;;;12.10;99.90;;;;;;5075724;28;20054;-75
2021/05/09 04:50:39;;;;;;;3.00;0.88;;;12.10;99.90;;;;;;5095137;28;20519;-74
2021/05/09 04:53:28;;;;;;;3.80;0.80;;;12.20;99.90;;;;;;5095691;28;20024;-75
2021/05/09 04:55:55;;;;;;;3.95;0.65;;;12.30;99.90;;;;;;5095551;28;20035;-74
2021/05/09 04:58:21;;;;;;;4.35;1.58;;;12.30;99.90;;;;;;5095050;28;20066;-75
2021/05/09 05:00:51;;;;;;;6.32;1.10;;;12.40;99.90;;;;;;5089777;22;20489;-74
2021/05/09 05:03:17;;;;;;;4.53;0.90;;;12.40;99.90;;;;;;5084609;28;20025;-74
2021/05/09 05:05:42;;;;;;;4.20;1.10;;;12.50;99.90;;;;;;5095389;28;20404;-73
2021/05/09 05:08:08;;;;;;;1.77;0.65;;;12.50;99.90;;;;;;5095105;28;20020;-75
2021/05/09 05:10:33;;;;;;;6.38;1.90;;;12.50;99.90;;;;;;5076954;28;20428;-75
2021/05/09 05:12:59;;;;;;;1.55;0.73;;;12.60;99.90;;;;;;5095083;28;20035;-74
2021/05/09 05:15:25;;;;;;;3.45;0.93;;;12.60;99.90;;;;;;5094763;28;20020;-74
2021/05/09 05:17:50;;;;;;;1.83;1.10;;;12.60;99.90;;;;;;5095204;28;20028;-74
2021/05/09 05:20:16;;;;;;;3.35;1.30;;;12.60;99.90;;;;;;5073311;22;20075;-73
2021/05/09 05:22:42;;;;;;;5.90;1.13;;;12.60;99.90;;;;;;5056306;28;20032;-74
2021/05/09 05:25:08;;;;;;;3.72;0.93;;;12.60;99.90;;;;;;5075070;28;20025;-73
2021/05/09 05:27:33;;;;;;;3.88;1.23;;;12.70;99.90;;;;;;5074415;28;20017;-74
2021/05/09 05:29:59;;;;;;;3.35;0.77;;;12.70;99.90;;;;;;5074560;28;20489;-74
2021/05/09 05:32:24;;;;;;;2.58;0.77;;;12.70;99.90;;;;;;5074537;28;20469;-74
2021/05/09 05:34:50;;;;;;;6.93;1.95;;;12.80;99.90;;;;;;5056305;28;20027;-74
2021/05/09 05:37:16;;;;;;;2.90;1.10;;;12.90;99.90;;;;;;5074112;28;20012;-74
2021/05/09 05:39:41;;;;;;;9.73;1.55;;;13.00;99.90;;;;;;5074758;28;20049;-74
2021/05/09 05:42:07;;;;;;;5.00;1.85;;;13.00;99.90;;;;;;5056043;28;20105;-74
2021/05/09 05:44:32;;;;;;;2.00;1.17;;;13.10;99.90;;;;;;5056374;28;20021;-74
2021/05/09 05:46:58;;;;;;;5.75;1.85;;;13.20;99.90;;;;;;5074141;28;20097;-74
2021/05/09 05:49:23;;;;;;;3.40;1.63;;;13.30;99.90;;;;;;5074477;28;20103;-73
2021/05/09 05:51:49;;;;;;;1.88;1.13;;;13.40;99.90;;;;;;5055991;28;20032;-75
2021/05/09 05:54:15;;;;;;;2.65;1.05;;;13.50;99.90;;;;;;5074261;28;20024;-72
2021/05/09 05:56:40;;;;;;;2.42;0.95;;;13.60;99.90;;;;;;5056013;28;20124;-73
2021/05/09 05:59:06;;;;;;;3.70;0.75;;;13.70;99.90;;;;;;5056487;28;20508;-74
2021/05/09 06:01:31;;;;;;;4.85;1.20;;;13.90;99.90;;;;;;5055880;28;20025;-75
2021/05/09 06:03:57;;;;;;;5.10;1.30;;;14.00;99.90;;;;;;5074628;28;20027;-74
2021/05/09 06:06:22;;;;;;;4.07;1.02;;;14.10;99.90;;;;;;5074743;28;20108;-72
2021/05/09 06:08:51;;;;;;;3.42;0.95;;;14.20;99.90;;;;;;5074167;28;20439;-75
2021/05/09 06:11:17;;;;;;;;;;;14.30;99.90;;;;;;5053450;28;20032;-72
2021/05/09 06:13:42;;;;;;;2.85;1.17;;;14.60;99.90;;;;;;5056873;28;20396;-73
2021/05/09 06:16:08;;;;;;;1.75;1.10;;;14.40;99.90;;;;;;5074164;28;20385;-75
2021/05/09 06:18:33;;;;;;;2.65;0.90;;;14.50;99.90;;;;;;5056170;28;20033;-75
2021/05/09 06:20:59;;;;;;;3.90;1.45;;;14.50;99.90;;;;;;5074082;28;20492;-74
2021/05/09 06:23:27;;;;;;;2.05;0.93;;;14.60;99.90;;;;;;5056496;28;20009;-74
2021/05/09 06:25:52;;;;;;;4.28;1.42;;;14.60;99.90;;;;;;5073911;28;20020;-74
2021/05/09 06:28:18;;;;;;;2.42;0.45;;;14.70;99.90;;;;;;5073792;28;20377;-74
2021/05/09 06:30:46;;;;;;;3.30;1.08;;;14.70;99.90;;;;;;5055829;28;20090;-73
2021/05/09 06:33:11;;;;;;;2.53;0.75;;;14.70;99.90;;;;;;5073709;28;20016;-75
2021/05/09 06:35:39;;;;;;;6.78;1.30;;;14.70;99.90;;;;;;5073588;28;20109;-74
2021/05/09 06:38:06;;;;;;;4.25;0.82;;;14.80;99.90;;;;;;5073882;28;20074;-75
2021/05/09 06:40:32;;;;;;;2.97;0.70;;;14.80;99.90;;;;;;5074202;28;20020;-74
2021/05/09 06:42:59;;;;;;;2.13;1.08;;;14.90;99.90;;;;;;5073701;28;20031;-73
2021/05/09 06:45:28;;;;;;;2.95;0.85;;;14.90;99.90;;;;;;5055229;28;20044;-73
2021/05/09 06:47:55;;;;;;;1.23;0.60;;;15.00;99.90;;;;;;5073730;28;20040;-75
2021/05/09 06:50:21;;;;;;;4.03;0.95;;;15.00;99.90;;;;;;5073835;28;20052;-75
2021/05/09 06:52:46;;;;;;;2.15;0.85;;;15.10;99.90;;;;;;5074598;28;20584;-77
2021/05/09 06:55:13;;;;;;;2.97;0.82;;;15.20;99.90;;;;;;5073537;28;20096;-75
2021/05/09 06:57:39;;;;;;;2.88;0.80;;;15.30;99.90;;;;;;5054978;28;20028;-75
2021/05/09 07:00:07;;;;;;;4.75;1.45;;;15.40;99.90;;;;;;5054953;28;20025;-75
2021/05/09 07:02:33;;;;;;;1.45;0.85;;;15.60;99.90;;;;;;5072895;28;20032;-76
2021/05/09 07:04:58;;;;;;;2.67;0.95;;;15.60;99.90;;;;;;5055003;28;20147;-76
2021/05/09 07:07:24;;;;;;;2.42;0.52;;;15.70;99.90;;;;;;5073307;28;20481;-76
2021/05/09 07:09:49;;;;;;;3.05;0.90;;;15.80;99.90;;;;;;5055371;28;20028;-77
2021/05/09 07:12:15;;;;;;;4.25;0.70;;;15.90;99.90;;;;;;5073777;28;20028;-77
2021/05/09 07:14:41;;;;;;;3.85;1.08;;;16.00;99.90;;;;;;5073393;28;20028;-76
2021/05/09 07:17:06;;;;;;;2.30;0.50;;;16.10;99.90;;;;;;5054838;28;20400;-76
2021/05/09 07:19:32;;;;;;;2.58;0.55;;;16.20;99.90;;;;;;5073006;28;20031;-73
2021/05/09 07:22:00;;;;;;;1.70;0.45;;;16.30;99.90;;;;;;5072738;28;20493;-75
2021/05/09 07:24:26;;;;;;;9.13;1.33;;;16.50;99.90;;;;;;5055010;28;20013;-74
2021/05/09 07:26:52;;;;;;;1.70;0.40;;;16.70;99.90;;;;;;5073265;28;20423;-74
2021/05/09 07:29:17;;;;;;;1.85;0.50;;;16.80;99.90;;;;;;5073213;28;20403;-75
2021/05/09 07:31:43;;;;;;;1.13;0.65;;;17.00;99.90;;;;;;5072904;28;20095;-72
2021/05/09 07:34:10;;;;;;;3.33;0.77;;;17.20;99.90;;;;;;5072880;28;20021;-75
2021/05/09 07:36:38;;;;;;;2.97;0.93;;;17.30;99.90;;;;;;5054970;28;20024;-72
2021/05/09 07:39:04;;;;;;;1.95;0.40;;;17.50;99.90;;;;;;5072913;28;20098;-75
2021/05/09 07:41:30;;;;;;;2.55;1.10;;;17.70;99.90;;;;;;5073169;28;20392;-73
2021/05/09 07:43:56;;;;;;;1.02;0.40;;;17.90;99.90;;;;;;5101214;23;20059;-72
2021/05/09 07:46:21;;;;;;;1.95;0.30;;;18.20;99.90;;;;;;5096511;28;20141;-73
2021/05/09 07:48:47;;;;;;;2.25;0.75;;;18.40;99.90;;;;;;5096925;28;20012;-72
2021/05/09 07:51:13;;;;;;;2.83;0.45;;;18.80;99.90;;;;;;5097199;28;20048;-72
2021/05/09 07:53:39;;;;;;;1.45;0.30;;;19.10;97.70;;;;;;5075090;28;20016;-72
2021/05/09 07:56:04;;;;;;;1.90;0.32;;;19.40;95.90;;;;;;5075899;28;20024;-72
2021/05/09 07:58:31;;;;;;;3.13;0.25;;;19.50;93.30;;;;;;5074841;28;20436;-72
2021/05/09 08:01:01;;;;;;;1.92;0.65;;;19.70;93.40;;;;;;5075924;28;20017;-72
2021/05/09 08:03:27;;;;;;;0.45;0.20;;;19.80;92.80;;;;;;5076373;28;20016;-72
2021/05/09 08:05:56;;;;;;;0.50;0.15;;;20.00;91.40;;;;;;5076174;28;20013;-73
2021/05/09 08:08:31;;;;;;;0.63;0.15;;;20.10;90.70;;;;;;5074755;28;20025;-75
2021/05/09 08:10:57;;;;;;;1.00;0.22;;;20.20;90.90;;;;;;5071419;28;20388;-74
2021/05/09 08:13:23;;;;;;;1.90;0.28;;;20.20;90.20;;;;;;5056138;28;20137;-74
2021/05/09 08:15:48;;;;;;;5.45;0.73;;;20.20;88.50;;;;;;5056170;28;20108;-75
2021/05/09 08:18:14;;;;;;;1.30;0.13;;;20.40;87.00;;;;;;5055995;28;20033;-75
2021/05/09 08:20:39;;;;;;;3.80;0.52;;;20.60;86.30;;;;;;5056142;28;20474;-72
2021/05/09 08:23:05;;;;;;;0.88;0.20;;;20.70;83.90;;;;;;5059097;28;20024;-73
2021/05/09 08:25:31;;;;;;;0.60;0.30;;;20.70;83.90;;;;;;5075844;28;20021;-73
2021/05/09 08:27:57;;;;;;;2.33;0.20;;;20.70;82.40;;;;;;5074211;28;20047;-73
2021/05/09 08:30:25;;;;;;;1.80;0.40;;;20.60;80.30;;;;;;5075530;28;20489;-73
2021/05/09 08:32:51;;;;;;;0.90;0.20;;;20.60;81.40;;;;;;5074385;28;20056;-74
2021/05/09 08:35:18;;;;;;;1.10;0.38;;;20.60;81.20;;;;;;5073026;22;20464;-75
2021/05/09 08:37:44;;;;;;;2.75;0.30;;;21.10;81.30;;;;;;5055458;28;20025;-72
2021/05/09 08:40:14;;;;;;;2.67;0.47;;;20.60;80.80;;;;;;5055195;28;20032;-75
2021/05/09 08:42:41;;;;;;;2.00;0.20;;;20.50;80.90;;;;;;5027887;28;20545;-75
2021/05/09 08:45:08;;;;;;;0.85;0.20;;;20.40;80.00;;;;;;5035810;28;20030;-75
2021/05/09 08:47:41;;;;;;;0.65;0.22;;;20.30;80.80;;;;;;5035368;28;20025;-74
2021/05/09 08:50:08;;;;;;;1.67;0.40;;;20.30;81.60;;;;;;5035267;28;20056;-73
2021/05/09 08:52:35;;;;;;;0.88;0.35;;;20.30;83.30;;;;;;5034995;28;20528;-73
2021/05/09 08:55:07;;;;;;;0.65;0.20;;;20.70;83.90;;;;;;5034294;28;20087;-73
2021/05/09 08:57:32;;;;;;;0.68;0.20;;;20.50;83.70;;;;;;5018082;28;20060;-75
2021/05/09 08:59:58;;;;;;;0.98;0.60;;;20.60;83.60;;;;;;5035317;28;20056;-73
2021/05/09 09:02:24;;;;;;;1.08;0.45;;;20.50;83.30;;;;;;5036277;28;20040;-73
2021/05/09 09:04:52;;;;;;;4.20;0.52;;;20.50;84.50;;;;;;5017369;28;20039;-73
2021/05/09 09:07:18;;;;;;;1.58;0.40;;;20.50;85.10;;;;;;5017306;28;20108;-75
2021/05/09 09:09:46;;;;;;;1.60;0.57;;;20.60;84.00;;;;;;5034825;28;20024;-73
2021/05/09 09:12:13;;;;;;;3.53;0.70;;;20.70;83.30;;;;;;5034919;28;20021;-75
2021/05/09 09:14:53;;;;;;;3.90;1.05;;;20.80;82.50;;;;;;5050688;28;20033;-73
2021/05/09 09:17:23;;;;;;;2.72;1.23;;;20.90;82.70;;;;;;5054672;28;20151;-73
2021/05/09 09:20:13;;;;;;;4.18;0.70;;;21.10;83.90;;;;;;5037338;28;20091;-74
2021/05/09 09:22:54;;;;;;;1.27;0.60;;;21.20;83.90;;;;;;5053814;28;20037;-73
2021/05/09 09:25:28;;;;;;;2.47;1.02;;;21.70;81.50;;;;;;5054843;28;20474;-74
2021/05/09 09:27:55;;;;;;;3.95;0.90;;;21.90;79.50;;;;;;5054499;28;20020;-75
2021/05/09 09:30:23;;;;;;;1.55;0.65;;;22.10;78.90;;;;;;5035719;28;20083;-75
2021/05/09 09:33:10;;;;;;;1.17;0.55;;;22.40;78.50;;;;;;5054593;28;20078;-75
2021/05/09 09:35:36;;;;;;;3.22;1.38;;;22.60;77.90;;;;;;5035111;28;20166;-75
2021/05/09 09:38:19;;;;;;;0.93;0.60;;;22.80;75.80;;;;;;5034400;28;20609;-75
2021/05/09 09:41:11;;;;;;;1.98;0.65;;;22.70;74.70;;;;;;5034137;28;20033;-74
2021/05/09 09:43:37;;;;;;;1.48;0.40;;;22.50;75.50;;;;;;5033968;28;20455;-75
2021/05/09 09:46:04;;;;;;;1.10;0.95;;;22.50;78.20;;;;;;5016402;28;20017;-75
2021/05/09 09:48:37;;;;;;;2.85;0.93;;;22.50;77.80;;;;;;5016160;28;20022;-75
2021/05/09 09:51:03;;;;;;;1.23;0.47;;;22.60;78.80;;;;;;5034066;28;20021;-75
2021/05/09 09:53:33;;;;;;;1.25;0.70;;;22.70;78.80;;;;;;5016299;28;20022;-74
2021/05/09 09:56:12;;;;;;;4.07;0.70;;;22.80;76.20;;;;;;5033831;28;20443;-73
2021/05/09 09:58:42;;;;;;;2.83;0.50;;;22.90;76.10;;;;;;5034006;28;20528;-74
2021/05/09 10:01:08;;;;;;;2.97;0.52;;;22.90;77.10;;;;;;5015754;28;20026;-74
2021/05/09 10:03:34;;;;;;;4.43;0.50;;;23.00;77.10;;;;;;5033954;28;20517;-74
2021/05/09 10:06:01;;;;;;;0.47;0.28;;;23.10;76.60;;;;;;5033545;28;20141;-75
2021/05/09 10:08:27;;;;;;;3.13;0.30;;;23.30;76.30;;;;;;5015598;28;20101;-73
2021/05/09 10:10:53;;;;;;;1.60;0.43;;;23.30;73.40;;;;;;5015940;28;20059;-75
2021/05/09 10:13:19;;;;;;;2.80;0.60;;;23.40;75.30;;;;;;5033541;28;20540;-73
2021/05/09 10:15:45;;;;;;;1.98;0.52;;;23.60;77.50;;;;;;5048972;28;20225;-74
2021/05/09 10:18:13;;;;;;;5.63;0.40;;;23.80;72.60;;;;;;5033210;28;20060;-74
2021/05/09 10:20:40;;;;;;;1.13;0.50;;;23.90;72.30;;;;;;5048496;28;20401;-75
2021/05/09 10:23:07;;;;;;;2.80;0.10;;;24.00;71.50;;;;;;5036688;28;20135;-75
2021/05/09 10:25:45;;;;;;;2.40;0.40;;;24.00;69.30;;;;;;5016910;28;20017;-73
2021/05/09 10:28:11;;;;;;;1.08;0.30;;;24.10;70.00;;;;;;5015311;28;20030;-76
2021/05/09 10:30:51;;;;;;;4.30;0.50;;;24.20;69.80;;;;;;5033426;28;20021;-75
2021/05/09 10:33:39;;;;;;;2.05;0.20;;;24.50;69.70;;;;;;5035738;28;20385;-74
2021/05/09 10:36:06;;;;;;;1.80;0.20;;;24.60;67.30;;;;;;5012501;28;20486;-74
2021/05/09 10:39:11;;;;;;;2.15;0.10;;;24.60;67.20;;;;;;5014090;28;20438;-73
2021/05/09 10:41:58;;;;;;;1.95;0.10;;;24.50;67.40;;;;;;5012541;28;20032;-73
2021/05/09 10:44:45;;;;;;;0.52;0.22;;;24.40;68.80;;;;;;5023022;28;20017;-74
2021/05/09 10:47:33;;;;;;;0.40;0.10;;;24.20;68.10;;;;;;5033744;28;20040;-75
2021/05/09 10:50:24;;;;;;;1.33;0.10;;;23.90;69.70;;;;;;5033718;28;20029;-74
2021/05/09 10:52:53;;;;;;;2.35;0.20;;;23.80;70.30;;;;;;5033247;28;20025;-75
2021/05/09 10:55:45;;;;;;;1.73;0.00;;;23.60;71.20;;;;;;5032995;28;20445;-73
2021/05/09 10:58:16;;;;;;;2.95;0.30;;;23.50;71.50;;;;;;5015385;28;20390;-75
2021/05/09 11:00:59;;;;;;;1.25;0.00;;;23.40;71.10;;;;;;5050647;28;20024;-73
2021/05/09 11:03:34;;;;;;;0.45;0.05;;;23.40;70.70;;;;;;5021869;28;20061;-74
2021/05/09 11:06:19;;;;;;;1.75;0.10;;;23.40;71.20;;;;;;5015344;28;20025;-75
2021/05/09 11:08:47;;;;;;;2.80;0.13;;;23.30;71.80;;;;;;5033151;28;20026;-75
2021/05/09 11:11:42;;;;;;;3.50;0.20;;;23.20;72.60;;;;;;5015658;28;20112;-73
2021/05/09 11:14:09;;;;;;;2.58;0.20;;;23.10;74.20;;;;;;5045806;28;20060;-74
2021/05/09 11:16:38;;;;;;;1.98;0.28;;;23.00;75.20;;;;;;5035354;28;20100;-74
2021/05/09 11:19:05;;;;;;;2.25;0.15;;;22.90;76.50;;;;;;5043000;28;20086;-73
2021/05/09 11:21:33;;;;;;;2.63;0.20;;;22.80;79.60;;;;;;5034946;28;20102;-74
2021/05/09 11:24:00;;;;;;;1.75;0.30;;;22.70;79.90;;;;;;5019017;28;20471;-73
2021/05/09 11:26:26;;;;;;;0.52;0.20;;;22.60;82.30;;;;;;5037102;28;20021;-75
2021/05/09 11:29:16;;;;;;;1.17;0.30;;;22.60;87.70;;;;;;5019110;28;20025;-75
2021/05/09 11:31:46;;;;;;;1.85;0.25;;;22.70;90.90;;;;;;5019494;28;20037;-75
2021/05/09 11:34:11;;;;;;;1.15;0.20;;;22.80;90.70;;;;;;5018578;28;20391;-74
2021/05/09 11:36:38;;;;;;;1.67;0.38;;;22.80;91.60;;;;;;5021216;28;20022;-76
2021/05/09 11:39:08;;;;;;;0.70;0.30;;;22.80;92.40;;;;;;5017153;28;20382;-77
2021/05/09 11:41:57;;;;;;;1.25;0.82;;;22.80;92.40;;;;;;5035899;28;20100;-73
2021/05/09 11:44:29;;;;;;;2.42;0.38;;;22.90;91.80;;;;;;5018700;28;20025;-75
2021/05/09 11:46:57;;;;;;;0.40;0.20;;;23.10;92.90;;;;;;5018891;28;20441;-73
2021/05/09 11:49:25;;;;;;;2.65;0.60;;;23.20;92.40;;;;;;5019733;28;20056;-76
2021/05/09 11:51:59;;;;;;;;;;;23.30;90.40;;;;;;5025066;28;20030;-76
2021/05/09 11:54:30;;;;;;;3.15;0.43;;;23.20;91.00;;;;;;5036904;28;20274;-76
2021/05/09 11:57:09;;;;;;;1.77;0.43;;;23.00;90.50;;;;;;5037084;28;20340;-76
2021/05/09 11:59:34;;;;;;;4.93;0.43;;;22.50;92.70;;;;;;5036355;28;20022;-77
2021/05/09 12:02:13;;;;;;;1.17;0.10;;;22.20;90.50;;;;;;5037145;28;20037;-73
2021/05/09 12:04:39;;;;;;;5.30;0.50;;;22.00;90.00;;;;;;5067833;23;20045;-76
2021/05/09 12:07:07;;;;;;;1.38;0.52;;;21.70;94.00;;;;;;5076382;28;20021;-75
2021/05/09 12:09:34;;;;;;;1.27;0.20;;;21.40;99.90;;;;;;5075643;28;20113;-75
2021/05/09 12:12:00;;;;;;;0.25;0.17;;;21.10;99.90;;;;;;5075575;28;20016;-76
2021/05/09 12:14:27;;;;;;;1.10;0.10;;;20.90;99.90;;;;;;5075218;28;20024;-73
2021/05/09 12:16:53;;;;;;;1.17;0.20;;;20.90;99.90;;;;;;5076027;28;20111;-73
2021/05/09 12:19:30;;;;;;;5.88;0.47;;;21.00;99.90;;;;;;5058202;28;20082;-74
2021/05/09 12:21:58;;;;;;;0.65;0.20;;;21.20;99.90;;;;;;5057313;28;20025;-73
2021/05/09 12:24:24;;;;;;;1.17;0.22;;;21.40;99.90;;;;;;5075350;28;20024;-74
2021/05/09 12:27:07;;;;;;;2.20;0.25;;;21.50;99.90;;;;;;5075464;28;20025;-72
2021/05/09 12:29:44;;;;;;;2.80;0.10;;;21.70;99.90;;;;;;5057544;28;20099;-73
2021/05/09 12:32:25;;;;;;;3.08;0.22;;;22.00;99.90;;;;;;5075091;28;20025;-73
2021/05/09 12:35:10;;;;;;;1.10;0.05;;;22.30;99.90;;;;;;5074900;28;20082;-73
2021/05/09 12:37:42;;;;;;;1.92;0.30;;;22.50;96.90;;;;;;5075411;28;20024;-73
2021/05/09 12:40:21;;;;;;;1.42;0.70;;;22.70;97.00;;;;;;5074843;28;20158;-74
2021/05/09 12:43:05;;;;;;;0.80;0.08;;;22.80;93.50;;;;;;5075019;28;20023;-72
2021/05/09 12:45:45;;;;;;;3.05;0.10;;;23.00;93.50;;;;;;5074878;28;20029;-72
2021/05/09 12:48:26;;;;;;;1.77;0.20;;;23.10;94.60;;;;;;5074912;28;20065;-74
2021/05/09 12:50:59;;;;;;;5.03;0.20;;;23.20;91.80;;;;;;5075315;28;20116;-74
2021/05/09 12:53:42;;;;;;;0.22;0.08;;;23.20;91.80;;;;;;5074546;28;20025;-72
2021/05/09 12:56:16;;;;;;;0.88;0.20;;;23.10;91.10;;;;;;5074857;28;20024;-73
2021/05/09 12:59:23;;;;;;;1.70;0.20;;;23.00;90.70;;;;;;5056710;28;20078;-72